createdAt,value
2017-09-04T00:00:26.310Z,15.04
2017-09-04T00:02:53.886Z,15.05
2017-09-04T00:05:21.283Z,15.07
2017-09-04T00:07:48.682Z,15.08
2017-09-04T00:10:16.088Z,15.04
2017-09-04T00:12:43.474Z,15.04
2017-09-04T00:15:11.034Z,15.02
2017-09-04T00:17:38.442Z,15.01
2017-09-04T00:20:05.886Z,14.98
2017-09-04T00:22:33.294Z,14.98
2017-09-04T00:25:00.690Z,14.98
2017-09-04T00:27:28.223Z,14.97
2017-09-04T00:29:55.615Z,14.94
2017-09-04T00:32:23.010Z,14.93
2017-09-04T00:34:50.430Z,14.91
2017-09-04T00:37:17.831Z,14.91
2017-09-04T00:39:45.386Z,14.89
2017-09-04T00:42:12.787Z,14.85
2017-09-04T00:44:40.210Z,14.84
2017-09-04T00:47:07.619Z,14.82
2017-09-04T00:49:35.166Z,14.82
2017-09-04T00:52:02.730Z,14.81
2017-09-04T00:54:30.145Z,14.78
2017-09-04T00:56:57.546Z,14.78
2017-09-04T00:59:24.941Z,14.77
2017-09-04T01:01:52.411Z,14.72
2017-09-04T01:04:20.184Z,14.69
2017-09-04T01:06:47.587Z,14.64
2017-09-04T01:09:15.015Z,14.59
2017-09-04T01:11:42.419Z,14.52
2017-09-04T01:14:09.815Z,14.47
2017-09-04T01:16:37.314Z,14.44
2017-09-04T01:19:04.718Z,14.48
2017-09-04T01:21:32.120Z,14.48
2017-09-04T01:23:59.534Z,14.47
2017-09-04T01:26:26.943Z,14.45
2017-09-04T01:28:54.450Z,14.42
2017-09-04T01:31:21.846Z,14.44
2017-09-04T01:33:49.243Z,14.45
2017-09-04T01:36:16.646Z,14.46
2017-09-04T01:38:44.054Z,14.43
2017-09-04T01:41:11.462Z,14.44
2017-09-04T01:43:38.866Z,14.43
2017-09-04T01:46:06.266Z,14.43
2017-09-04T01:48:33.663Z,14.42
2017-09-04T01:51:01.060Z,14.40
2017-09-04T01:53:28.470Z,14.34
2017-09-04T01:55:55.879Z,14.30
2017-09-04T01:58:23.259Z,14.25
2017-09-04T02:00:50.678Z,14.23
2017-09-04T02:03:18.078Z,14.20
2017-09-04T02:05:45.815Z,14.17
2017-09-04T02:08:13.202Z,14.12
2017-09-04T02:10:40.604Z,14.11
2017-09-04T02:13:08.003Z,14.06
2017-09-04T02:15:35.439Z,14.06
2017-09-04T02:18:02.966Z,14.10
2017-09-04T02:20:30.384Z,14.03
2017-09-04T02:22:57.778Z,14.02
2017-09-04T02:25:25.182Z,13.99
2017-09-04T02:27:52.575Z,13.97
2017-09-04T02:30:20.106Z,13.90
2017-09-04T02:32:47.535Z,13.86
2017-09-04T02:35:14.936Z,13.89
2017-09-04T02:37:42.368Z,13.88
2017-09-04T02:40:09.778Z,13.85
2017-09-04T02:42:37.337Z,13.85
2017-09-04T02:45:04.734Z,13.83
2017-09-04T02:47:32.123Z,13.80
2017-09-04T02:49:59.544Z,13.78
2017-09-04T02:52:26.972Z,13.78
2017-09-04T02:54:54.504Z,13.76
2017-09-04T02:57:21.890Z,13.79
2017-09-04T02:59:49.282Z,13.78
2017-09-04T03:02:16.686Z,13.75
2017-09-04T03:04:44.094Z,13.78
2017-09-04T03:07:11.654Z,13.83
2017-09-04T03:09:39.042Z,13.83
2017-09-04T03:12:06.438Z,13.84
2017-09-04T03:14:33.863Z,13.84
2017-09-04T03:17:01.271Z,13.86
2017-09-04T03:19:28.818Z,13.79
2017-09-04T03:21:56.282Z,13.82
2017-09-04T03:24:23.687Z,13.83
2017-09-04T03:26:51.087Z,13.78
2017-09-04T03:29:18.987Z,13.76
2017-09-04T03:31:46.482Z,13.67
2017-09-04T03:34:13.875Z,13.64
2017-09-04T03:36:41.271Z,13.65
2017-09-04T03:39:08.679Z,13.68
2017-09-04T03:41:36.078Z,13.70
2017-09-04T03:44:03.650Z,13.70
2017-09-04T03:46:31.048Z,13.71
2017-09-04T03:48:58.442Z,13.64
2017-09-04T03:51:25.846Z,13.62
2017-09-04T03:53:53.243Z,13.65
2017-09-04T03:56:20.804Z,13.64
2017-09-04T03:58:48.210Z,13.61
2017-09-04T04:01:15.604Z,13.55
2017-09-04T04:03:43.015Z,13.51
2017-09-04T04:06:10.409Z,13.50
2017-09-04T04:08:37.860Z,13.54
2017-09-04T04:11:05.302Z,13.52
2017-09-04T04:13:32.701Z,13.50
2017-09-04T04:16:00.099Z,13.48
2017-09-04T04:18:27.489Z,13.47
2017-09-04T04:20:55.051Z,13.49
2017-09-04T04:23:22.462Z,13.50
2017-09-04T04:25:49.879Z,13.47
2017-09-04T04:28:17.274Z,13.44
2017-09-04T04:30:44.676Z,13.43
2017-09-04T04:33:12.086Z,13.41
2017-09-04T04:35:39.508Z,13.39
2017-09-04T04:38:06.902Z,13.39
2017-09-04T04:40:34.304Z,13.35
2017-09-04T04:43:01.706Z,13.36
2017-09-04T04:45:29.102Z,13.34
2017-09-04T04:47:56.502Z,13.35
2017-09-04T04:50:23.910Z,13.41
2017-09-04T04:52:51.302Z,13.44
2017-09-04T04:55:18.702Z,13.41
2017-09-04T04:57:46.126Z,13.43
2017-09-04T05:00:13.523Z,13.48
2017-09-04T05:02:41.105Z,13.45
2017-09-04T05:05:08.491Z,13.51
2017-09-04T05:07:35.902Z,13.58
2017-09-04T05:10:03.313Z,13.64
2017-09-04T05:12:30.706Z,13.67
2017-09-04T05:14:58.285Z,13.69
2017-09-04T05:17:25.690Z,13.74
2017-09-04T05:19:53.091Z,13.80
2017-09-04T05:22:20.497Z,13.86
2017-09-04T05:24:47.894Z,13.89
2017-09-04T05:27:15.344Z,13.99
2017-09-04T05:29:42.735Z,14.04
2017-09-04T05:32:10.131Z,14.03
2017-09-04T05:34:37.543Z,14.07
2017-09-04T05:37:04.945Z,14.15
2017-09-04T05:39:32.446Z,14.24
2017-09-04T05:41:59.843Z,14.24
2017-09-04T05:44:27.238Z,14.31
2017-09-04T05:46:54.754Z,14.37
2017-09-04T05:49:22.146Z,14.46
2017-09-04T05:51:49.831Z,14.54
2017-09-04T05:54:17.222Z,14.68
2017-09-04T05:56:44.620Z,14.74
2017-09-04T05:59:12.032Z,14.81
2017-09-04T06:01:39.431Z,14.91
2017-09-04T06:04:06.877Z,14.98
2017-09-04T06:06:34.277Z,15.06
2017-09-04T06:09:01.680Z,15.16
2017-09-04T06:11:29.090Z,15.22
2017-09-04T06:13:56.495Z,15.28
2017-09-04T06:16:23.894Z,15.34
2017-09-04T06:18:51.299Z,15.42
2017-09-04T06:21:18.703Z,15.43
2017-09-04T06:23:46.106Z,15.47
2017-09-04T06:26:13.522Z,15.48
2017-09-04T06:28:40.922Z,15.53
2017-09-04T06:31:08.330Z,15.59
2017-09-04T06:33:35.739Z,15.60
2017-09-04T06:36:03.130Z,15.61
2017-09-04T06:38:30.546Z,15.63
2017-09-04T06:40:57.947Z,15.62
2017-09-04T06:43:25.388Z,15.60
2017-09-04T06:45:52.783Z,15.62
2017-09-04T06:48:20.180Z,15.64
2017-09-04T06:50:47.581Z,15.70
2017-09-04T06:53:14.971Z,15.77
2017-09-04T06:55:42.493Z,15.86
2017-09-04T06:58:09.895Z,15.92
2017-09-04T07:00:37.291Z,15.96
2017-09-04T07:03:04.692Z,16.03
2017-09-04T07:05:32.086Z,16.10
2017-09-04T07:07:59.498Z,16.17
2017-09-04T07:10:26.895Z,16.23
2017-09-04T07:12:54.295Z,16.31
2017-09-04T07:15:21.696Z,16.42
2017-09-04T07:17:49.091Z,16.54
2017-09-04T07:20:16.698Z,16.59
2017-09-04T07:22:44.100Z,16.71
2017-09-04T07:25:11.486Z,16.78
2017-09-04T07:27:38.886Z,16.82
2017-09-04T07:30:06.282Z,16.80
2017-09-04T07:32:33.724Z,16.76
2017-09-04T07:35:01.125Z,16.74
2017-09-04T07:37:28.518Z,16.74
2017-09-04T07:39:55.923Z,16.79
2017-09-04T07:42:23.319Z,16.90
2017-09-04T07:44:50.843Z,16.92
2017-09-04T07:47:18.238Z,16.97
2017-09-04T07:49:45.634Z,17.01
2017-09-04T07:52:13.038Z,17.07
2017-09-04T07:54:40.434Z,17.24
2017-09-04T07:57:07.855Z,17.34
2017-09-04T07:59:35.294Z,17.44
2017-09-04T08:02:02.695Z,17.51
2017-09-04T08:04:30.096Z,17.54
2017-09-04T08:06:57.491Z,17.53
2017-09-04T08:09:25.047Z,17.58
2017-09-04T08:11:52.438Z,17.66
2017-09-04T08:14:19.858Z,17.76
2017-09-04T08:16:47.313Z,17.92
2017-09-04T08:19:14.694Z,18.03
2017-09-04T08:21:42.247Z,18.17
2017-09-04T08:24:09.650Z,18.24
2017-09-04T08:26:37.050Z,18.35
2017-09-04T08:29:04.459Z,18.41
2017-09-04T08:31:31.855Z,18.47
2017-09-04T08:33:59.407Z,18.61
2017-09-04T08:36:26.803Z,18.65
2017-09-04T08:38:54.195Z,18.79
2017-09-04T08:41:21.594Z,18.92
2017-09-04T08:43:48.990Z,19.06
2017-09-04T08:46:16.498Z,19.17
2017-09-04T08:48:43.890Z,19.34
2017-09-04T08:51:11.299Z,19.49
2017-09-04T08:53:38.703Z,19.66
2017-09-04T08:56:06.102Z,19.76
2017-09-04T08:58:33.770Z,19.86
2017-09-04T09:01:01.168Z,20.02
2017-09-04T09:03:28.568Z,20.14
2017-09-04T09:05:55.970Z,20.29
2017-09-04T09:08:23.379Z,20.43
2017-09-04T09:10:50.810Z,20.54
2017-09-04T09:13:18.212Z,20.75
2017-09-04T09:15:46.219Z,21.00
2017-09-04T09:18:13.607Z,21.14
2017-09-04T09:20:41.000Z,21.18
2017-09-04T09:23:08.507Z,21.21
2017-09-04T09:25:35.918Z,21.45
2017-09-04T09:28:03.307Z,21.68
2017-09-04T09:30:30.707Z,21.95
2017-09-04T09:32:58.106Z,22.22
2017-09-04T09:35:25.607Z,22.54
2017-09-04T09:37:52.998Z,22.95
2017-09-04T09:40:20.394Z,23.29
2017-09-04T09:42:47.808Z,23.23
2017-09-04T09:45:15.202Z,23.50
2017-09-04T09:47:42.706Z,23.86
2017-09-04T09:50:10.107Z,24.11
2017-09-04T09:52:37.499Z,24.44
2017-09-04T09:55:04.898Z,24.66
2017-09-04T09:57:32.304Z,24.58
2017-09-04T09:59:59.723Z,24.32
2017-09-04T10:02:27.126Z,24.31
2017-09-04T10:04:54.522Z,24.18
2017-09-04T10:07:21.922Z,24.17
2017-09-04T10:09:49.319Z,24.27
2017-09-04T10:12:16.879Z,24.64
2017-09-04T10:14:44.279Z,24.93
2017-09-04T10:17:11.678Z,25.32
2017-09-04T10:19:39.080Z,25.84
2017-09-04T10:22:06.477Z,26.24
2017-09-04T10:24:33.894Z,26.51
2017-09-04T10:27:01.287Z,26.61
2017-09-04T10:29:28.682Z,26.28
2017-09-04T10:31:56.087Z,25.92
2017-09-04T10:34:23.482Z,26.28
2017-09-04T10:36:51.011Z,26.40
2017-09-04T10:39:18.407Z,26.34
2017-09-04T10:41:45.811Z,25.96
2017-09-04T10:44:13.206Z,26.03
2017-09-04T10:46:40.598Z,26.26
2017-09-04T10:49:08.123Z,26.63
2017-09-04T10:51:35.530Z,27.01
2017-09-04T10:54:02.931Z,27.31
2017-09-04T10:56:30.330Z,27.65
2017-09-04T10:58:57.723Z,27.77
2017-09-04T11:01:25.162Z,27.95
2017-09-04T11:03:52.560Z,27.56
2017-09-04T11:06:19.954Z,27.40
2017-09-04T11:08:47.366Z,27.58
2017-09-04T11:11:14.763Z,27.48
2017-09-04T11:13:42.272Z,27.97
2017-09-04T11:16:09.671Z,28.22
2017-09-04T11:18:37.069Z,28.66
2017-09-04T11:21:04.462Z,28.87
2017-09-04T11:23:31.862Z,28.79
2017-09-04T11:25:59.391Z,28.83
2017-09-04T11:28:26.795Z,27.33
2017-09-04T11:30:54.196Z,27.67
2017-09-04T11:33:21.605Z,27.94
2017-09-04T11:35:49.006Z,28.19
2017-09-04T11:38:16.447Z,27.95
2017-09-04T11:40:43.844Z,28.13
2017-09-04T11:43:11.240Z,28.12
2017-09-04T11:45:38.656Z,28.28
2017-09-04T11:48:06.046Z,28.69
2017-09-04T11:50:33.474Z,28.96
2017-09-04T11:53:00.871Z,29.05
2017-09-04T11:55:38.740Z,28.06
2017-09-04T11:58:06.135Z,27.19
2017-09-04T12:00:42.814Z,26.21
2017-09-04T12:03:10.283Z,25.79
2017-09-04T12:05:39.778Z,25.65
2017-09-04T12:08:07.199Z,25.69
2017-09-04T12:10:34.594Z,25.97
2017-09-04T12:13:02.000Z,26.53
2017-09-04T12:15:29.402Z,26.30
2017-09-04T12:17:56.799Z,26.57
2017-09-04T12:20:24.203Z,26.96
2017-09-04T12:22:51.610Z,26.67
2017-09-04T12:25:19.002Z,26.99
2017-09-04T12:27:46.450Z,27.00
2017-09-04T12:30:13.842Z,26.86
2017-09-04T12:32:41.251Z,27.19
2017-09-04T12:35:08.658Z,26.78
2017-09-04T12:37:36.060Z,26.60
2017-09-04T12:40:03.614Z,26.47
2017-09-04T12:42:31.007Z,26.80
2017-09-04T12:44:58.417Z,27.30
2017-09-04T12:47:25.815Z,27.72
2017-09-04T12:49:53.214Z,27.49
2017-09-04T12:52:20.719Z,26.89
2017-09-04T12:54:48.164Z,26.37
2017-09-04T12:57:15.584Z,26.42
2017-09-04T12:59:43.000Z,26.32
2017-09-04T13:02:10.400Z,26.03
2017-09-04T13:04:37.802Z,26.04
2017-09-04T13:07:05.208Z,26.44
2017-09-04T13:09:32.619Z,26.73
2017-09-04T13:15:13.675Z,26.03
2017-09-04T13:20:46.442Z,25.82
2017-09-04T13:23:22.310Z,25.59
2017-09-04T13:26:00.146Z,25.62
2017-09-04T13:28:33.062Z,25.84
2017-09-04T13:31:06.114Z,25.58
2017-09-04T13:33:39.076Z,25.84
2017-09-04T13:36:11.959Z,26.35
2017-09-04T13:41:58.971Z,25.73
2017-09-04T13:44:31.148Z,25.42
2017-09-04T13:47:14.196Z,24.94
2017-09-04T13:49:41.597Z,24.74
2017-09-04T13:52:14.503Z,24.64
2017-09-04T13:54:47.486Z,24.56
2017-09-04T14:00:23.018Z,24.13
2017-09-04T14:06:01.343Z,24.52
2017-09-04T14:08:34.420Z,24.48
2017-09-04T14:11:07.455Z,24.42
2017-09-04T14:13:40.455Z,24.62
2017-09-04T14:16:23.530Z,24.83
2017-09-04T14:18:50.934Z,24.53
2017-09-04T14:21:18.336Z,24.63
2017-09-04T14:23:45.864Z,24.57
2017-09-04T14:26:13.271Z,24.59
2017-09-04T14:28:40.703Z,24.53
2017-09-04T14:31:08.125Z,24.35
2017-09-04T14:33:35.550Z,24.34
2017-09-04T14:36:03.098Z,24.38
2017-09-04T14:38:30.500Z,24.40
2017-09-04T14:41:07.820Z,24.45
2017-09-04T14:46:38.802Z,24.54
2017-09-04T14:49:06.186Z,24.63
2017-09-04T14:51:33.582Z,24.63
2017-09-04T14:54:00.986Z,24.75
2017-09-04T14:56:28.396Z,24.87
2017-09-04T14:58:55.952Z,24.91
2017-09-04T15:01:23.363Z,24.89
2017-09-04T15:03:50.754Z,24.88
2017-09-04T15:06:18.158Z,24.85
2017-09-04T15:08:45.547Z,24.81
2017-09-04T15:11:13.227Z,24.74
2017-09-04T15:13:40.622Z,24.69
2017-09-04T15:16:08.040Z,24.59
2017-09-04T15:18:35.465Z,24.53
2017-09-04T15:21:02.859Z,24.36
2017-09-04T15:23:30.322Z,24.25
2017-09-04T15:25:57.718Z,24.13
2017-09-04T15:28:25.110Z,23.97
2017-09-04T15:30:52.506Z,23.76
2017-09-04T15:33:19.906Z,23.65
2017-09-04T15:35:47.311Z,23.61
2017-09-04T15:38:14.707Z,23.64
2017-09-04T15:40:42.112Z,23.64
2017-09-04T15:43:09.510Z,23.65
2017-09-04T15:45:36.910Z,23.68
2017-09-04T15:48:04.310Z,23.63
2017-09-04T15:50:31.702Z,23.55
2017-09-04T15:52:59.107Z,23.43
2017-09-04T15:55:26.509Z,23.36
2017-09-04T15:57:54.094Z,23.28
2017-09-04T16:00:21.504Z,23.20
2017-09-04T16:02:48.902Z,23.10
2017-09-04T16:05:16.322Z,23.07
2017-09-04T16:07:45.210Z,22.96
2017-09-04T16:10:12.764Z,22.91
2017-09-04T16:12:40.159Z,22.78
2017-09-04T16:15:17.616Z,22.75
2017-09-04T16:18:00.790Z,22.61
2017-09-04T16:20:30.683Z,22.56
2017-09-04T16:22:58.560Z,22.57
2017-09-04T16:25:42.644Z,22.55
2017-09-04T16:28:24.767Z,22.62
2017-09-04T16:30:56.528Z,22.53
2017-09-04T16:33:24.571Z,22.36
2017-09-04T16:38:54.606Z,22.48
2017-09-04T16:41:22.986Z,22.33
2017-09-04T16:43:56.918Z,22.29
2017-09-04T16:46:25.120Z,22.23
2017-09-04T16:49:07.386Z,22.19
2017-09-04T16:51:38.894Z,22.14
2017-09-04T16:54:06.313Z,22.16
2017-09-04T16:56:47.635Z,22.13
2017-09-04T16:59:15.035Z,22.05
2017-09-04T17:01:42.439Z,21.96
2017-09-04T17:04:09.855Z,21.91
2017-09-04T17:06:43.495Z,21.85
2017-09-04T17:09:11.574Z,21.84
2017-09-04T17:11:40.338Z,21.74
2017-09-04T17:14:07.847Z,21.68
2017-09-04T17:16:35.247Z,21.66
2017-09-04T17:19:07.200Z,21.62
2017-09-04T17:21:35.583Z,21.57
2017-09-04T17:27:04.836Z,21.49
2017-09-04T17:29:32.370Z,21.49
2017-09-04T17:31:59.772Z,21.43
2017-09-04T17:34:27.171Z,21.41
2017-09-04T17:36:54.570Z,21.39
2017-09-04T17:39:21.972Z,21.31
2017-09-04T17:41:49.494Z,21.25
2017-09-04T17:44:16.917Z,21.18
2017-09-04T17:46:44.311Z,21.07
2017-09-04T17:49:11.730Z,20.95
2017-09-04T17:51:39.131Z,20.90
2017-09-04T17:54:06.686Z,20.81
2017-09-04T17:56:34.087Z,20.76
2017-09-04T17:59:01.482Z,20.74
2017-09-04T18:01:28.893Z,20.73
2017-09-04T18:03:56.288Z,20.73
2017-09-04T18:06:23.691Z,20.72
2017-09-04T18:08:51.173Z,20.74
2017-09-04T18:11:18.602Z,20.70
2017-09-04T18:13:46.066Z,20.74
2017-09-04T18:16:13.463Z,20.68
2017-09-04T18:18:40.882Z,20.65
2017-09-04T18:21:09.144Z,20.66
2017-09-04T18:23:36.810Z,20.64
2017-09-04T18:26:05.296Z,20.67
2017-09-04T18:28:32.691Z,20.66
2017-09-04T18:31:00.123Z,20.65
2017-09-04T18:33:27.541Z,20.59
2017-09-04T18:35:55.079Z,20.59
2017-09-04T18:38:22.491Z,20.57
2017-09-04T18:40:49.893Z,20.60
2017-09-04T18:43:17.295Z,20.60
2017-09-04T18:45:44.694Z,20.63
2017-09-04T18:48:12.102Z,20.59
2017-09-04T18:50:39.490Z,20.57
2017-09-04T18:53:07.215Z,20.58
2017-09-04T18:55:34.615Z,20.61
2017-09-04T18:58:02.038Z,20.54
2017-09-04T19:00:29.459Z,20.50
2017-09-04T19:02:56.854Z,20.44
2017-09-04T19:05:24.255Z,20.42
2017-09-04T19:07:51.660Z,20.37
2017-09-04T19:10:19.167Z,20.35
2017-09-04T19:12:46.571Z,20.30
2017-09-04T19:15:13.971Z,20.28
2017-09-04T19:17:41.446Z,20.25
2017-09-04T19:20:08.857Z,20.22
2017-09-04T19:22:36.296Z,20.21
2017-09-04T19:25:03.683Z,20.17
2017-09-04T19:27:31.190Z,20.16
2017-09-04T19:29:58.586Z,20.15
2017-09-04T19:32:25.983Z,20.12
2017-09-04T19:34:53.386Z,20.12
2017-09-04T19:37:20.782Z,20.13
2017-09-04T19:39:48.238Z,20.12
2017-09-04T19:42:15.637Z,20.10
2017-09-04T19:44:43.027Z,20.11
2017-09-04T19:47:10.443Z,20.04
2017-09-04T19:49:37.843Z,20.00
2017-09-04T19:52:05.368Z,19.97
2017-09-04T19:54:32.784Z,19.97
2017-09-04T19:57:00.193Z,19.96
2017-09-04T19:59:27.583Z,19.94
2017-09-04T20:01:54.998Z,19.93
2017-09-04T20:04:22.489Z,19.94
2017-09-04T20:06:49.886Z,20.00
2017-09-04T20:09:17.291Z,20.01
2017-09-04T20:11:44.687Z,20.00
2017-09-04T20:14:12.081Z,20.05
2017-09-04T20:16:39.495Z,20.03
2017-09-04T20:19:06.903Z,20.02
2017-09-04T20:21:34.325Z,20.04
2017-09-04T20:24:01.730Z,20.04
2017-09-04T20:26:29.543Z,19.99
2017-09-04T20:28:57.947Z,19.99
2017-09-04T20:31:25.348Z,19.93
2017-09-04T20:33:52.738Z,19.91
2017-09-04T20:36:20.150Z,19.89
2017-09-04T20:38:47.546Z,19.87
2017-09-04T20:41:15.083Z,19.84
2017-09-04T20:43:42.487Z,19.82
2017-09-04T20:46:09.873Z,19.81
2017-09-04T20:48:37.277Z,19.77
2017-09-04T20:51:04.671Z,19.77
2017-09-04T20:53:32.229Z,19.77
2017-09-04T20:55:59.640Z,19.76
2017-09-04T20:58:27.076Z,19.72
2017-09-04T21:00:54.482Z,19.70
2017-09-04T21:03:21.887Z,19.66
2017-09-04T21:05:49.326Z,19.66
2017-09-04T21:08:16.735Z,19.64
2017-09-04T21:10:44.131Z,19.61
2017-09-04T21:13:11.532Z,19.61
2017-09-04T21:15:38.931Z,19.57
2017-09-04T21:18:06.380Z,19.52
2017-09-04T21:20:33.770Z,19.51
2017-09-04T21:23:01.168Z,19.46
2017-09-04T21:25:28.584Z,19.45
2017-09-04T21:27:55.974Z,19.44
2017-09-04T21:30:23.484Z,19.48
2017-09-04T21:32:50.877Z,19.53
2017-09-04T21:35:18.278Z,19.52
2017-09-04T21:37:45.675Z,19.48
2017-09-04T21:40:13.082Z,19.40
2017-09-04T21:42:40.622Z,19.37
2017-09-04T21:45:08.014Z,19.33
2017-09-04T21:47:35.430Z,19.32
2017-09-04T21:50:02.840Z,19.29
2017-09-04T21:52:30.230Z,19.27
2017-09-04T21:54:57.752Z,19.30
2017-09-04T21:57:25.158Z,19.31
2017-09-04T21:59:52.558Z,19.29
2017-09-04T22:02:19.963Z,19.25
2017-09-04T22:04:47.362Z,19.22
2017-09-04T22:07:14.811Z,19.18
2017-09-04T22:09:42.218Z,19.20
2017-09-04T22:12:09.614Z,19.21
2017-09-04T22:14:37.017Z,19.23
2017-09-04T22:17:04.414Z,19.26
2017-09-04T22:19:31.977Z,19.31
2017-09-04T22:21:59.365Z,19.34
2017-09-04T22:24:26.773Z,19.37
2017-09-04T22:26:54.179Z,19.40
2017-09-04T22:29:21.571Z,19.42
2017-09-04T22:31:49.120Z,19.42
2017-09-04T22:34:16.516Z,19.42
2017-09-04T22:36:43.918Z,19.42
2017-09-04T22:39:11.328Z,19.44
2017-09-04T22:41:38.719Z,19.46
2017-09-04T22:44:06.350Z,19.45
2017-09-04T22:46:33.750Z,19.45
2017-09-04T22:49:01.139Z,19.44
2017-09-04T22:51:28.542Z,19.42
2017-09-04T22:53:55.944Z,19.37
2017-09-04T22:56:23.537Z,19.38
2017-09-04T22:58:50.930Z,19.37
2017-09-04T23:01:18.327Z,19.37
2017-09-04T23:03:45.728Z,19.35
2017-09-04T23:06:13.119Z,19.37
2017-09-04T23:08:40.542Z,19.37
2017-09-04T23:11:07.934Z,19.34
2017-09-04T23:13:35.336Z,19.33
2017-09-04T23:16:02.742Z,19.33
2017-09-04T23:18:30.138Z,19.29
2017-09-04T23:20:57.562Z,19.29
2017-09-04T23:23:24.959Z,19.33
2017-09-04T23:25:52.350Z,19.29
2017-09-04T23:28:19.755Z,19.30
2017-09-04T23:30:47.158Z,19.28
2017-09-04T23:33:14.713Z,19.22
2017-09-04T23:35:42.102Z,19.25
2017-09-04T23:38:09.494Z,19.22
2017-09-04T23:40:37.268Z,19.22
2017-09-04T23:43:04.670Z,19.20
2017-09-04T23:45:32.071Z,19.20
2017-09-04T23:47:59.475Z,19.17
2017-09-04T23:50:27.850Z,19.17
2017-09-04T23:52:55.256Z,19.19
2017-09-04T23:55:22.653Z,19.16
2017-09-04T23:57:50.078Z,19.14
